<?xml version="1.0" encoding="UTF-8" standalone="no" ?>
<gpx xmlns="http://www.topografix.com/GPX/1/1" xmlns:xsi="http://www.w3.org/2001/XMLSchema-instance" xsi:schemaLocation="http://www.topografix.com/GPX/1/1 http://www.topografix.com/GPX/1/1/gpx.xsd" version="1.1" creator="VisuGPX - https://www.visugpx.com">
  <metadata>
    <name>14071738-Bois Barbu GR 1</name>
  </metadata>
  <trk>
    <name><![CDATA[14071738-Bois Barbu GR 1]]></name>
    <trkseg>
      <trkpt lat="45.06218" lon="5.52371">
        <ele>1127</ele>
        <time>2022-01-13T19:50:21Z</time>
      </trkpt>
      <trkpt lat="45.06215" lon="5.52361">
        <ele>1126</ele>
        <time>2022-01-13T19:50:27Z</time>
      </trkpt>
      <trkpt lat="45.06209" lon="5.5237">
        <ele>1127</ele>
        <time>2022-01-13T19:50:34Z</time>
      </trkpt>
      <trkpt lat="45.06202" lon="5.52373">
        <ele>1128</ele>
        <time>2022-01-13T19:50:40Z</time>
      </trkpt>
      <trkpt lat="45.06161" lon="5.52364">
        <ele>1131</ele>
        <time>2022-01-13T19:51:13Z</time>
      </trkpt>
      <trkpt lat="45.0612" lon="5.52369">
        <ele>1136</ele>
        <time>2022-01-13T19:51:46Z</time>
      </trkpt>
      <trkpt lat="45.06106" lon="5.52363">
        <ele>1137</ele>
        <time>2022-01-13T19:51:58Z</time>
      </trkpt>
      <trkpt lat="45.06089" lon="5.52348">
        <ele>1137</ele>
        <time>2022-01-13T19:52:14Z</time>
      </trkpt>
      <trkpt lat="45.06074" lon="5.52331">
        <ele>1137</ele>
        <time>2022-01-13T19:52:29Z</time>
      </trkpt>
      <trkpt lat="45.06058" lon="5.52317">
        <ele>1138</ele>
        <time>2022-01-13T19:52:44Z</time>
      </trkpt>
      <trkpt lat="45.0605" lon="5.52316">
        <ele>1138</ele>
        <time>2022-01-13T19:52:51Z</time>
      </trkpt>
      <trkpt lat="45.06067" lon="5.52379">
        <ele>1141</ele>
        <time>2022-01-13T19:53:29Z</time>
      </trkpt>
      <trkpt lat="45.06062" lon="5.52363">
        <ele>1140</ele>
        <time>2022-01-13T19:53:39Z</time>
      </trkpt>
      <trkpt lat="45.06046" lon="5.52383">
        <ele>1142</ele>
        <time>2022-01-13T19:53:56Z</time>
      </trkpt>
      <trkpt lat="45.06043" lon="5.52392">
        <ele>1143</ele>
        <time>2022-01-13T19:54:02Z</time>
      </trkpt>
      <trkpt lat="45.06043" lon="5.5241">
        <ele>1144</ele>
        <time>2022-01-13T19:54:12Z</time>
      </trkpt>
      <trkpt lat="45.06046" lon="5.52428">
        <ele>1146</ele>
        <time>2022-01-13T19:54:22Z</time>
      </trkpt>
      <trkpt lat="45.0605" lon="5.52443">
        <ele>1147</ele>
        <time>2022-01-13T19:54:31Z</time>
      </trkpt>
      <trkpt lat="45.06059" lon="5.52457">
        <ele>1148</ele>
        <time>2022-01-13T19:54:42Z</time>
      </trkpt>
      <trkpt lat="45.06096" lon="5.52477">
        <ele>1148</ele>
        <time>2022-01-13T19:55:14Z</time>
      </trkpt>
      <trkpt lat="45.06113" lon="5.52477">
        <ele>1148</ele>
        <time>2022-01-13T19:55:27Z</time>
      </trkpt>
      <trkpt lat="45.06145" lon="5.52474">
        <ele>1147</ele>
        <time>2022-01-13T19:55:53Z</time>
      </trkpt>
      <trkpt lat="45.06159" lon="5.52477">
        <ele>1147</ele>
        <time>2022-01-13T19:56:04Z</time>
      </trkpt>
      <trkpt lat="45.0617" lon="5.52491">
        <ele>1149</ele>
        <time>2022-01-13T19:56:16Z</time>
      </trkpt>
      <trkpt lat="45.06178" lon="5.52508">
        <ele>1151</ele>
        <time>2022-01-13T19:56:28Z</time>
      </trkpt>
      <trkpt lat="45.06195" lon="5.52583">
        <ele>1163</ele>
        <time>2022-01-13T19:57:12Z</time>
      </trkpt>
      <trkpt lat="45.06209" lon="5.52598">
        <ele>1164</ele>
        <time>2022-01-13T19:57:26Z</time>
      </trkpt>
      <trkpt lat="45.06219" lon="5.52606">
        <ele>1165</ele>
        <time>2022-01-13T19:57:35Z</time>
      </trkpt>
      <trkpt lat="45.06235" lon="5.52612">
        <ele>1165</ele>
        <time>2022-01-13T19:57:49Z</time>
      </trkpt>
      <trkpt lat="45.06303" lon="5.52631">
        <ele>1168</ele>
        <time>2022-01-13T19:58:44Z</time>
      </trkpt>
      <trkpt lat="45.06334" lon="5.52637">
        <ele>1169</ele>
        <time>2022-01-13T19:59:09Z</time>
      </trkpt>
      <trkpt lat="45.06332" lon="5.52675">
        <ele>1175</ele>
        <time>2022-01-13T19:59:31Z</time>
      </trkpt>
      <trkpt lat="45.06313" lon="5.52687">
        <ele>1176</ele>
        <time>2022-01-13T19:59:48Z</time>
      </trkpt>
      <trkpt lat="45.06293" lon="5.5271">
        <ele>1177</ele>
        <time>2022-01-13T20:00:08Z</time>
      </trkpt>
      <trkpt lat="45.0628" lon="5.52729">
        <ele>1178</ele>
        <time>2022-01-13T20:00:23Z</time>
      </trkpt>
      <trkpt lat="45.06268" lon="5.52755">
        <ele>1180</ele>
        <time>2022-01-13T20:00:41Z</time>
      </trkpt>
      <trkpt lat="45.06241" lon="5.52833">
        <ele>1186</ele>
        <time>2022-01-13T20:01:30Z</time>
      </trkpt>
      <trkpt lat="45.06223" lon="5.52846">
        <ele>1188</ele>
        <time>2022-01-13T20:01:46Z</time>
      </trkpt>
      <trkpt lat="45.06203" lon="5.52864">
        <ele>1190</ele>
        <time>2022-01-13T20:02:05Z</time>
      </trkpt>
      <trkpt lat="45.06188" lon="5.52871">
        <ele>1192</ele>
        <time>2022-01-13T20:02:18Z</time>
      </trkpt>
      <trkpt lat="45.06176" lon="5.52873">
        <ele>1193</ele>
        <time>2022-01-13T20:02:27Z</time>
      </trkpt>
      <trkpt lat="45.06166" lon="5.52871">
        <ele>1193</ele>
        <time>2022-01-13T20:02:35Z</time>
      </trkpt>
      <trkpt lat="45.06074" lon="5.52814">
        <ele>1201</ele>
        <time>2022-01-13T20:03:56Z</time>
      </trkpt>
      <trkpt lat="45.06047" lon="5.52799">
        <ele>1200</ele>
        <time>2022-01-13T20:04:19Z</time>
      </trkpt>
      <trkpt lat="45.05987" lon="5.52786">
        <ele>1199</ele>
        <time>2022-01-13T20:05:08Z</time>
      </trkpt>
      <trkpt lat="45.05969" lon="5.52779">
        <ele>1199</ele>
        <time>2022-01-13T20:05:23Z</time>
      </trkpt>
      <trkpt lat="45.05958" lon="5.52772">
        <ele>1198</ele>
        <time>2022-01-13T20:05:32Z</time>
      </trkpt>
      <trkpt lat="45.05948" lon="5.52762">
        <ele>1197</ele>
        <time>2022-01-13T20:05:42Z</time>
      </trkpt>
      <trkpt lat="45.05928" lon="5.52738">
        <ele>1195</ele>
        <time>2022-01-13T20:06:03Z</time>
      </trkpt>
      <trkpt lat="45.05915" lon="5.52728">
        <ele>1194</ele>
        <time>2022-01-13T20:06:15Z</time>
      </trkpt>
      <trkpt lat="45.05897" lon="5.52722">
        <ele>1195</ele>
        <time>2022-01-13T20:06:30Z</time>
      </trkpt>
      <trkpt lat="45.05867" lon="5.52717">
        <ele>1197</ele>
        <time>2022-01-13T20:06:54Z</time>
      </trkpt>
      <trkpt lat="45.05851" lon="5.52718">
        <ele>1198</ele>
        <time>2022-01-13T20:07:07Z</time>
      </trkpt>
      <trkpt lat="45.05792" lon="5.52714">
        <ele>1203</ele>
        <time>2022-01-13T20:07:54Z</time>
      </trkpt>
      <trkpt lat="45.05776" lon="5.5271">
        <ele>1204</ele>
        <time>2022-01-13T20:08:07Z</time>
      </trkpt>
      <trkpt lat="45.05763" lon="5.52704">
        <ele>1204</ele>
        <time>2022-01-13T20:08:18Z</time>
      </trkpt>
      <trkpt lat="45.0574" lon="5.52687">
        <ele>1205</ele>
        <time>2022-01-13T20:08:39Z</time>
      </trkpt>
      <trkpt lat="45.05721" lon="5.52682">
        <ele>1206</ele>
        <time>2022-01-13T20:08:54Z</time>
      </trkpt>
      <trkpt lat="45.05659" lon="5.52693">
        <ele>1212</ele>
        <time>2022-01-13T20:09:44Z</time>
      </trkpt>
      <trkpt lat="45.056" lon="5.52717">
        <ele>1214</ele>
        <time>2022-01-13T20:10:33Z</time>
      </trkpt>
      <trkpt lat="45.05583" lon="5.52718">
        <ele>1215</ele>
        <time>2022-01-13T20:10:47Z</time>
      </trkpt>
      <trkpt lat="45.05569" lon="5.52715">
        <ele>1216</ele>
        <time>2022-01-13T20:10:58Z</time>
      </trkpt>
      <trkpt lat="45.0555" lon="5.52702">
        <ele>1217</ele>
        <time>2022-01-13T20:11:15Z</time>
      </trkpt>
      <trkpt lat="45.05529" lon="5.52671">
        <ele>1218</ele>
        <time>2022-01-13T20:11:39Z</time>
      </trkpt>
      <trkpt lat="45.0552" lon="5.52663">
        <ele>1218</ele>
        <time>2022-01-13T20:11:48Z</time>
      </trkpt>
      <trkpt lat="45.05484" lon="5.52648">
        <ele>1221</ele>
        <time>2022-01-13T20:12:18Z</time>
      </trkpt>
      <trkpt lat="45.05447" lon="5.52649">
        <ele>1226</ele>
        <time>2022-01-13T20:12:48Z</time>
      </trkpt>
      <trkpt lat="45.0542" lon="5.52645">
        <ele>1229</ele>
        <time>2022-01-13T20:13:09Z</time>
      </trkpt>
      <trkpt lat="45.0541" lon="5.52641">
        <ele>1230</ele>
        <time>2022-01-13T20:13:18Z</time>
      </trkpt>
      <trkpt lat="45.05381" lon="5.5262">
        <ele>1230</ele>
        <time>2022-01-13T20:13:44Z</time>
      </trkpt>
      <trkpt lat="45.05338" lon="5.52584">
        <ele>1231</ele>
        <time>2022-01-13T20:14:24Z</time>
      </trkpt>
      <trkpt lat="45.05314" lon="5.52561">
        <ele>1230</ele>
        <time>2022-01-13T20:14:47Z</time>
      </trkpt>
      <trkpt lat="45.05255" lon="5.52494">
        <ele>1235</ele>
        <time>2022-01-13T20:15:48Z</time>
      </trkpt>
      <trkpt lat="45.05199" lon="5.52426">
        <ele>1242</ele>
        <time>2022-01-13T20:16:47Z</time>
      </trkpt>
      <trkpt lat="45.05178" lon="5.52411">
        <ele>1244</ele>
        <time>2022-01-13T20:17:05Z</time>
      </trkpt>
      <trkpt lat="45.05138" lon="5.52391">
        <ele>1246</ele>
        <time>2022-01-13T20:17:39Z</time>
      </trkpt>
      <trkpt lat="45.05116" lon="5.52387">
        <ele>1247</ele>
        <time>2022-01-13T20:17:57Z</time>
      </trkpt>
      <trkpt lat="45.05119" lon="5.52377">
        <ele>1248</ele>
        <time>2022-01-13T20:18:03Z</time>
      </trkpt>
      <trkpt lat="45.05116" lon="5.52387">
        <ele>1247</ele>
        <time>2022-01-13T20:18:09Z</time>
      </trkpt>
      <trkpt lat="45.05095" lon="5.52383">
        <ele>1248</ele>
        <time>2022-01-13T20:18:26Z</time>
      </trkpt>
      <trkpt lat="45.05032" lon="5.52384">
        <ele>1248</ele>
        <time>2022-01-13T20:19:17Z</time>
      </trkpt>
      <trkpt lat="45.05004" lon="5.5238">
        <ele>1249</ele>
        <time>2022-01-13T20:19:39Z</time>
      </trkpt>
      <trkpt lat="45.04983" lon="5.52372">
        <ele>1249</ele>
        <time>2022-01-13T20:19:57Z</time>
      </trkpt>
      <trkpt lat="45.04931" lon="5.52313">
        <ele>1250</ele>
        <time>2022-01-13T20:20:50Z</time>
      </trkpt>
      <trkpt lat="45.04911" lon="5.52295">
        <ele>1250</ele>
        <time>2022-01-13T20:21:09Z</time>
      </trkpt>
      <trkpt lat="45.04879" lon="5.52287">
        <ele>1249</ele>
        <time>2022-01-13T20:21:35Z</time>
      </trkpt>
      <trkpt lat="45.04872" lon="5.52281">
        <ele>1249</ele>
        <time>2022-01-13T20:21:42Z</time>
      </trkpt>
      <trkpt lat="45.04858" lon="5.52219">
        <ele>1251</ele>
        <time>2022-01-13T20:22:19Z</time>
      </trkpt>
      <trkpt lat="45.04827" lon="5.52122">
        <ele>1248</ele>
        <time>2022-01-13T20:23:19Z</time>
      </trkpt>
      <trkpt lat="45.04812" lon="5.52099">
        <ele>1246</ele>
        <time>2022-01-13T20:23:37Z</time>
      </trkpt>
      <trkpt lat="45.04795" lon="5.52097">
        <ele>1245</ele>
        <time>2022-01-13T20:23:50Z</time>
      </trkpt>
      <trkpt lat="45.04734" lon="5.52121">
        <ele>1246</ele>
        <time>2022-01-13T20:24:41Z</time>
      </trkpt>
      <trkpt lat="45.04697" lon="5.52143">
        <ele>1248</ele>
        <time>2022-01-13T20:25:13Z</time>
      </trkpt>
      <trkpt lat="45.04663" lon="5.52168">
        <ele>1248</ele>
        <time>2022-01-13T20:25:44Z</time>
      </trkpt>
      <trkpt lat="45.04632" lon="5.5218">
        <ele>1250</ele>
        <time>2022-01-13T20:26:09Z</time>
      </trkpt>
      <trkpt lat="45.04581" lon="5.52181">
        <ele>1253</ele>
        <time>2022-01-13T20:26:50Z</time>
      </trkpt>
      <trkpt lat="45.04573" lon="5.52201">
        <ele>1252</ele>
        <time>2022-01-13T20:27:03Z</time>
      </trkpt>
      <trkpt lat="45.04564" lon="5.52211">
        <ele>1251</ele>
        <time>2022-01-13T20:27:12Z</time>
      </trkpt>
      <trkpt lat="45.04533" lon="5.52231">
        <ele>1249</ele>
        <time>2022-01-13T20:27:40Z</time>
      </trkpt>
      <trkpt lat="45.04507" lon="5.52228">
        <ele>1250</ele>
        <time>2022-01-13T20:28:01Z</time>
      </trkpt>
      <trkpt lat="45.0448" lon="5.52217">
        <ele>1252</ele>
        <time>2022-01-13T20:28:23Z</time>
      </trkpt>
      <trkpt lat="45.04462" lon="5.52205">
        <ele>1253</ele>
        <time>2022-01-13T20:28:39Z</time>
      </trkpt>
      <trkpt lat="45.04455" lon="5.52189">
        <ele>1256</ele>
        <time>2022-01-13T20:28:50Z</time>
      </trkpt>
      <trkpt lat="45.04342" lon="5.52125">
        <ele>1260</ele>
        <time>2022-01-13T20:30:27Z</time>
      </trkpt>
      <trkpt lat="45.04322" lon="5.52124">
        <ele>1260</ele>
        <time>2022-01-13T20:30:43Z</time>
      </trkpt>
      <trkpt lat="45.04281" lon="5.5213">
        <ele>1256</ele>
        <time>2022-01-13T20:31:16Z</time>
      </trkpt>
      <trkpt lat="45.04263" lon="5.52135">
        <ele>1254</ele>
        <time>2022-01-13T20:31:31Z</time>
      </trkpt>
      <trkpt lat="45.04133" lon="5.52192">
        <ele>1230</ele>
        <time>2022-01-13T20:33:20Z</time>
      </trkpt>
      <trkpt lat="45.03984" lon="5.52235">
        <ele>1205</ele>
        <time>2022-01-13T20:35:22Z</time>
      </trkpt>
      <trkpt lat="45.03926" lon="5.52209">
        <ele>1204</ele>
        <time>2022-01-13T20:36:10Z</time>
      </trkpt>
      <trkpt lat="45.03926" lon="5.52209">
        <ele>1204</ele>
        <time>2022-01-13T20:36:10Z</time>
      </trkpt>
      <trkpt lat="45.03934" lon="5.52211">
        <ele>1205</ele>
        <time>2022-01-13T20:36:17Z</time>
      </trkpt>
      <trkpt lat="45.03955" lon="5.52191">
        <ele>1213</ele>
        <time>2022-01-13T20:36:37Z</time>
      </trkpt>
      <trkpt lat="45.03948" lon="5.52171">
        <ele>1218</ele>
        <time>2022-01-13T20:36:50Z</time>
      </trkpt>
      <trkpt lat="45.03932" lon="5.52148">
        <ele>1222</ele>
        <time>2022-01-13T20:37:08Z</time>
      </trkpt>
      <trkpt lat="45.03927" lon="5.52146">
        <ele>1222</ele>
        <time>2022-01-13T20:37:12Z</time>
      </trkpt>
      <trkpt lat="45.03926" lon="5.52142">
        <ele>1223</ele>
        <time>2022-01-13T20:37:14Z</time>
      </trkpt>
      <trkpt lat="45.03918" lon="5.5214">
        <ele>1223</ele>
        <time>2022-01-13T20:37:21Z</time>
      </trkpt>
      <trkpt lat="45.03915" lon="5.52134">
        <ele>1224</ele>
        <time>2022-01-13T20:37:25Z</time>
      </trkpt>
      <trkpt lat="45.03914" lon="5.5212">
        <ele>1228</ele>
        <time>2022-01-13T20:37:33Z</time>
      </trkpt>
      <trkpt lat="45.03916" lon="5.52112">
        <ele>1230</ele>
        <time>2022-01-13T20:37:38Z</time>
      </trkpt>
      <trkpt lat="45.03913" lon="5.52101">
        <ele>1233</ele>
        <time>2022-01-13T20:37:45Z</time>
      </trkpt>
      <trkpt lat="45.03903" lon="5.52076">
        <ele>1238</ele>
        <time>2022-01-13T20:38:01Z</time>
      </trkpt>
      <trkpt lat="45.03904" lon="5.52066">
        <ele>1240</ele>
        <time>2022-01-13T20:38:07Z</time>
      </trkpt>
      <trkpt lat="45.03911" lon="5.52053">
        <ele>1244</ele>
        <time>2022-01-13T20:38:16Z</time>
      </trkpt>
      <trkpt lat="45.03951" lon="5.52003">
        <ele>1258</ele>
        <time>2022-01-13T20:38:59Z</time>
      </trkpt>
      <trkpt lat="45.03968" lon="5.5199">
        <ele>1263</ele>
        <time>2022-01-13T20:39:14Z</time>
      </trkpt>
      <trkpt lat="45.03983" lon="5.52">
        <ele>1263</ele>
        <time>2022-01-13T20:39:27Z</time>
      </trkpt>
      <trkpt lat="45.04001" lon="5.51994">
        <ele>1266</ele>
        <time>2022-01-13T20:39:42Z</time>
      </trkpt>
      <trkpt lat="45.04024" lon="5.51993">
        <ele>1268</ele>
        <time>2022-01-13T20:40:00Z</time>
      </trkpt>
      <trkpt lat="45.04045" lon="5.51979">
        <ele>1272</ele>
        <time>2022-01-13T20:40:19Z</time>
      </trkpt>
      <trkpt lat="45.0406" lon="5.51968">
        <ele>1275</ele>
        <time>2022-01-13T20:40:33Z</time>
      </trkpt>
      <trkpt lat="45.0407" lon="5.51956">
        <ele>1278</ele>
        <time>2022-01-13T20:40:43Z</time>
      </trkpt>
      <trkpt lat="45.0409" lon="5.51948">
        <ele>1281</ele>
        <time>2022-01-13T20:41:00Z</time>
      </trkpt>
      <trkpt lat="45.04103" lon="5.51921">
        <ele>1286</ele>
        <time>2022-01-13T20:41:18Z</time>
      </trkpt>
      <trkpt lat="45.04111" lon="5.51888">
        <ele>1289</ele>
        <time>2022-01-13T20:41:38Z</time>
      </trkpt>
      <trkpt lat="45.04102" lon="5.51855">
        <ele>1292</ele>
        <time>2022-01-13T20:41:58Z</time>
      </trkpt>
      <trkpt lat="45.04091" lon="5.5184">
        <ele>1294</ele>
        <time>2022-01-13T20:42:10Z</time>
      </trkpt>
      <trkpt lat="45.04087" lon="5.51808">
        <ele>1298</ele>
        <time>2022-01-13T20:42:29Z</time>
      </trkpt>
      <trkpt lat="45.0407" lon="5.51769">
        <ele>1302</ele>
        <time>2022-01-13T20:42:55Z</time>
      </trkpt>
      <trkpt lat="45.04055" lon="5.5175">
        <ele>1305</ele>
        <time>2022-01-13T20:43:11Z</time>
      </trkpt>
      <trkpt lat="45.04038" lon="5.5174">
        <ele>1306</ele>
        <time>2022-01-13T20:43:25Z</time>
      </trkpt>
      <trkpt lat="45.04022" lon="5.51734">
        <ele>1307</ele>
        <time>2022-01-13T20:43:39Z</time>
      </trkpt>
      <trkpt lat="45.0401" lon="5.51719">
        <ele>1309</ele>
        <time>2022-01-13T20:43:51Z</time>
      </trkpt>
      <trkpt lat="45.04003" lon="5.51683">
        <ele>1311</ele>
        <time>2022-01-13T20:44:13Z</time>
      </trkpt>
      <trkpt lat="45.03982" lon="5.51662">
        <ele>1312</ele>
        <time>2022-01-13T20:44:33Z</time>
      </trkpt>
      <trkpt lat="45.03973" lon="5.51641">
        <ele>1312</ele>
        <time>2022-01-13T20:44:47Z</time>
      </trkpt>
      <trkpt lat="45.03973" lon="5.5162">
        <ele>1312</ele>
        <time>2022-01-13T20:44:59Z</time>
      </trkpt>
      <trkpt lat="45.03978" lon="5.51597">
        <ele>1311</ele>
        <time>2022-01-13T20:45:13Z</time>
      </trkpt>
      <trkpt lat="45.0396" lon="5.51554">
        <ele>1311</ele>
        <time>2022-01-13T20:45:41Z</time>
      </trkpt>
      <trkpt lat="45.03948" lon="5.51531">
        <ele>1310</ele>
        <time>2022-01-13T20:45:57Z</time>
      </trkpt>
      <trkpt lat="45.03924" lon="5.51518">
        <ele>1310</ele>
        <time>2022-01-13T20:46:18Z</time>
      </trkpt>
      <trkpt lat="45.03893" lon="5.51512">
        <ele>1309</ele>
        <time>2022-01-13T20:46:43Z</time>
      </trkpt>
      <trkpt lat="45.03873" lon="5.51493">
        <ele>1308</ele>
        <time>2022-01-13T20:47:02Z</time>
      </trkpt>
      <trkpt lat="45.03872" lon="5.51409">
        <ele>1306</ele>
        <time>2022-01-13T20:47:49Z</time>
      </trkpt>
      <trkpt lat="45.03879" lon="5.51369">
        <ele>1307</ele>
        <time>2022-01-13T20:48:13Z</time>
      </trkpt>
      <trkpt lat="45.03888" lon="5.51331">
        <ele>1308</ele>
        <time>2022-01-13T20:48:35Z</time>
      </trkpt>
      <trkpt lat="45.03915" lon="5.51263">
        <ele>1311</ele>
        <time>2022-01-13T20:49:20Z</time>
      </trkpt>
      <trkpt lat="45.03955" lon="5.51207">
        <ele>1309</ele>
        <time>2022-01-13T20:50:05Z</time>
      </trkpt>
      <trkpt lat="45.03985" lon="5.51183">
        <ele>1308</ele>
        <time>2022-01-13T20:50:32Z</time>
      </trkpt>
      <trkpt lat="45.04024" lon="5.5117">
        <ele>1306</ele>
        <time>2022-01-13T20:51:04Z</time>
      </trkpt>
      <trkpt lat="45.04055" lon="5.51132">
        <ele>1297</ele>
        <time>2022-01-13T20:51:37Z</time>
      </trkpt>
      <trkpt lat="45.04057" lon="5.51114">
        <ele>1294</ele>
        <time>2022-01-13T20:51:47Z</time>
      </trkpt>
      <trkpt lat="45.04051" lon="5.51097">
        <ele>1291</ele>
        <time>2022-01-13T20:51:58Z</time>
      </trkpt>
      <trkpt lat="45.04035" lon="5.51084">
        <ele>1288</ele>
        <time>2022-01-13T20:52:13Z</time>
      </trkpt>
      <trkpt lat="45.03983" lon="5.51067">
        <ele>1284</ele>
        <time>2022-01-13T20:52:56Z</time>
      </trkpt>
      <trkpt lat="45.0397" lon="5.51038">
        <ele>1277</ele>
        <time>2022-01-13T20:53:15Z</time>
      </trkpt>
      <trkpt lat="45.03979" lon="5.50997">
        <ele>1267</ele>
        <time>2022-01-13T20:53:39Z</time>
      </trkpt>
      <trkpt lat="45.03961" lon="5.50988">
        <ele>1265</ele>
        <time>2022-01-13T20:53:55Z</time>
      </trkpt>
      <trkpt lat="45.03929" lon="5.50979">
        <ele>1263</ele>
        <time>2022-01-13T20:54:21Z</time>
      </trkpt>
      <trkpt lat="45.03858" lon="5.50985">
        <ele>1259</ele>
        <time>2022-01-13T20:55:18Z</time>
      </trkpt>
      <trkpt lat="45.03884" lon="5.5094">
        <ele>1254</ele>
        <time>2022-01-13T20:55:51Z</time>
      </trkpt>
      <trkpt lat="45.03884" lon="5.50912">
        <ele>1251</ele>
        <time>2022-01-13T20:56:07Z</time>
      </trkpt>
      <trkpt lat="45.0388" lon="5.50894">
        <ele>1250</ele>
        <time>2022-01-13T20:56:17Z</time>
      </trkpt>
      <trkpt lat="45.03842" lon="5.50887">
        <ele>1247</ele>
        <time>2022-01-13T20:56:48Z</time>
      </trkpt>
      <trkpt lat="45.03801" lon="5.50903">
        <ele>1248</ele>
        <time>2022-01-13T20:57:22Z</time>
      </trkpt>
      <trkpt lat="45.03782" lon="5.50906">
        <ele>1248</ele>
        <time>2022-01-13T20:57:37Z</time>
      </trkpt>
      <trkpt lat="45.03766" lon="5.50898">
        <ele>1248</ele>
        <time>2022-01-13T20:57:51Z</time>
      </trkpt>
      <trkpt lat="45.03746" lon="5.50877">
        <ele>1246</ele>
        <time>2022-01-13T20:58:11Z</time>
      </trkpt>
      <trkpt lat="45.03721" lon="5.50838">
        <ele>1244</ele>
        <time>2022-01-13T20:58:41Z</time>
      </trkpt>
      <trkpt lat="45.03699" lon="5.50811">
        <ele>1245</ele>
        <time>2022-01-13T20:59:04Z</time>
      </trkpt>
      <trkpt lat="45.03686" lon="5.50802">
        <ele>1245</ele>
        <time>2022-01-13T20:59:15Z</time>
      </trkpt>
      <trkpt lat="45.03673" lon="5.50799">
        <ele>1245</ele>
        <time>2022-01-13T20:59:26Z</time>
      </trkpt>
      <trkpt lat="45.03671" lon="5.50782">
        <ele>1245</ele>
        <time>2022-01-13T20:59:36Z</time>
      </trkpt>
      <trkpt lat="45.03673" lon="5.50799">
        <ele>1245</ele>
        <time>2022-01-13T20:59:46Z</time>
      </trkpt>
      <trkpt lat="45.03573" lon="5.50798">
        <ele>1242</ele>
        <time>2022-01-13T21:01:06Z</time>
      </trkpt>
      <trkpt lat="45.03673" lon="5.50799">
        <ele>1245</ele>
        <time>2022-01-13T21:02:26Z</time>
      </trkpt>
      <trkpt lat="45.03668" lon="5.50749">
        <ele>1245</ele>
        <time>2022-01-13T21:02:54Z</time>
      </trkpt>
      <trkpt lat="45.03667" lon="5.507">
        <ele>1248</ele>
        <time>2022-01-13T21:03:22Z</time>
      </trkpt>
      <trkpt lat="45.03714" lon="5.50631">
        <ele>1252</ele>
        <time>2022-01-13T21:04:16Z</time>
      </trkpt>
      <trkpt lat="45.03719" lon="5.50582">
        <ele>1254</ele>
        <time>2022-01-13T21:04:44Z</time>
      </trkpt>
      <trkpt lat="45.03729" lon="5.50556">
        <ele>1256</ele>
        <time>2022-01-13T21:05:01Z</time>
      </trkpt>
      <trkpt lat="45.03738" lon="5.50514">
        <ele>1258</ele>
        <time>2022-01-13T21:05:26Z</time>
      </trkpt>
      <trkpt lat="45.03755" lon="5.5049">
        <ele>1260</ele>
        <time>2022-01-13T21:05:45Z</time>
      </trkpt>
      <trkpt lat="45.03767" lon="5.50461">
        <ele>1264</ele>
        <time>2022-01-13T21:06:04Z</time>
      </trkpt>
      <trkpt lat="45.03786" lon="5.50449">
        <ele>1265</ele>
        <time>2022-01-13T21:06:21Z</time>
      </trkpt>
      <trkpt lat="45.03816" lon="5.50381">
        <ele>1270</ele>
        <time>2022-01-13T21:07:06Z</time>
      </trkpt>
      <trkpt lat="45.03881" lon="5.50277">
        <ele>1279</ele>
        <time>2022-01-13T21:08:25Z</time>
      </trkpt>
      <trkpt lat="45.03889" lon="5.50249">
        <ele>1281</ele>
        <time>2022-01-13T21:08:42Z</time>
      </trkpt>
      <trkpt lat="45.03892" lon="5.50189">
        <ele>1285</ele>
        <time>2022-01-13T21:09:16Z</time>
      </trkpt>
      <trkpt lat="45.03906" lon="5.50157">
        <ele>1288</ele>
        <time>2022-01-13T21:09:37Z</time>
      </trkpt>
      <trkpt lat="45.03916" lon="5.50125">
        <ele>1289</ele>
        <time>2022-01-13T21:09:57Z</time>
      </trkpt>
      <trkpt lat="45.0396" lon="5.50081">
        <ele>1291</ele>
        <time>2022-01-13T21:10:40Z</time>
      </trkpt>
      <trkpt lat="45.04106" lon="5.50078">
        <ele>1291</ele>
        <time>2022-01-13T21:12:37Z</time>
      </trkpt>
      <trkpt lat="45.04198" lon="5.5006">
        <ele>1291</ele>
        <time>2022-01-13T21:13:51Z</time>
      </trkpt>
      <trkpt lat="45.04277" lon="5.50027">
        <ele>1290</ele>
        <time>2022-01-13T21:14:57Z</time>
      </trkpt>
      <trkpt lat="45.04303" lon="5.49994">
        <ele>1288</ele>
        <time>2022-01-13T21:15:25Z</time>
      </trkpt>
      <trkpt lat="45.04294" lon="5.49983">
        <ele>1289</ele>
        <time>2022-01-13T21:15:35Z</time>
      </trkpt>
      <trkpt lat="45.04281" lon="5.49961">
        <ele>1289</ele>
        <time>2022-01-13T21:15:51Z</time>
      </trkpt>
      <trkpt lat="45.04281" lon="5.49945">
        <ele>1289</ele>
        <time>2022-01-13T21:16:00Z</time>
      </trkpt>
      <trkpt lat="45.04272" lon="5.4994">
        <ele>1289</ele>
        <time>2022-01-13T21:16:08Z</time>
      </trkpt>
      <trkpt lat="45.04265" lon="5.49949">
        <ele>1289</ele>
        <time>2022-01-13T21:16:15Z</time>
      </trkpt>
      <trkpt lat="45.04272" lon="5.4994">
        <ele>1289</ele>
        <time>2022-01-13T21:16:23Z</time>
      </trkpt>
      <trkpt lat="45.04281" lon="5.49945">
        <ele>1289</ele>
        <time>2022-01-13T21:16:31Z</time>
      </trkpt>
      <trkpt lat="45.04281" lon="5.49961">
        <ele>1289</ele>
        <time>2022-01-13T21:16:40Z</time>
      </trkpt>
      <trkpt lat="45.04294" lon="5.49983">
        <ele>1289</ele>
        <time>2022-01-13T21:16:56Z</time>
      </trkpt>
      <trkpt lat="45.04308" lon="5.49999">
        <ele>1288</ele>
        <time>2022-01-13T21:17:10Z</time>
      </trkpt>
      <trkpt lat="45.04347" lon="5.50018">
        <ele>1289</ele>
        <time>2022-01-13T21:17:43Z</time>
      </trkpt>
      <trkpt lat="45.04376" lon="5.50008">
        <ele>1286</ele>
        <time>2022-01-13T21:18:07Z</time>
      </trkpt>
      <trkpt lat="45.04407" lon="5.50001">
        <ele>1284</ele>
        <time>2022-01-13T21:18:32Z</time>
      </trkpt>
      <trkpt lat="45.04423" lon="5.50003">
        <ele>1283</ele>
        <time>2022-01-13T21:18:45Z</time>
      </trkpt>
      <trkpt lat="45.04437" lon="5.50009">
        <ele>1282</ele>
        <time>2022-01-13T21:18:57Z</time>
      </trkpt>
      <trkpt lat="45.04453" lon="5.50011">
        <ele>1281</ele>
        <time>2022-01-13T21:19:10Z</time>
      </trkpt>
      <trkpt lat="45.0446" lon="5.50004">
        <ele>1280</ele>
        <time>2022-01-13T21:19:17Z</time>
      </trkpt>
      <trkpt lat="45.04465" lon="5.49994">
        <ele>1280</ele>
        <time>2022-01-13T21:19:24Z</time>
      </trkpt>
      <trkpt lat="45.04471" lon="5.4999">
        <ele>1280</ele>
        <time>2022-01-13T21:19:29Z</time>
      </trkpt>
      <trkpt lat="45.04478" lon="5.49988">
        <ele>1280</ele>
        <time>2022-01-13T21:19:35Z</time>
      </trkpt>
      <trkpt lat="45.04491" lon="5.49988">
        <ele>1279</ele>
        <time>2022-01-13T21:19:45Z</time>
      </trkpt>
      <trkpt lat="45.04536" lon="5.49974">
        <ele>1279</ele>
        <time>2022-01-13T21:20:22Z</time>
      </trkpt>
      <trkpt lat="45.04566" lon="5.49982">
        <ele>1277</ele>
        <time>2022-01-13T21:20:46Z</time>
      </trkpt>
      <trkpt lat="45.04578" lon="5.49983">
        <ele>1277</ele>
        <time>2022-01-13T21:20:56Z</time>
      </trkpt>
      <trkpt lat="45.04603" lon="5.49974">
        <ele>1279</ele>
        <time>2022-01-13T21:21:17Z</time>
      </trkpt>
      <trkpt lat="45.04609" lon="5.49967">
        <ele>1280</ele>
        <time>2022-01-13T21:21:23Z</time>
      </trkpt>
      <trkpt lat="45.04622" lon="5.49972">
        <ele>1280</ele>
        <time>2022-01-13T21:21:34Z</time>
      </trkpt>
      <trkpt lat="45.04635" lon="5.49995">
        <ele>1278</ele>
        <time>2022-01-13T21:21:50Z</time>
      </trkpt>
      <trkpt lat="45.04663" lon="5.50017">
        <ele>1279</ele>
        <time>2022-01-13T21:22:16Z</time>
      </trkpt>
      <trkpt lat="45.0472" lon="5.50025">
        <ele>1278</ele>
        <time>2022-01-13T21:23:02Z</time>
      </trkpt>
      <trkpt lat="45.04744" lon="5.5002">
        <ele>1278</ele>
        <time>2022-01-13T21:23:21Z</time>
      </trkpt>
      <trkpt lat="45.04763" lon="5.50034">
        <ele>1278</ele>
        <time>2022-01-13T21:23:38Z</time>
      </trkpt>
      <trkpt lat="45.04772" lon="5.50049">
        <ele>1278</ele>
        <time>2022-01-13T21:23:49Z</time>
      </trkpt>
      <trkpt lat="45.04799" lon="5.50065">
        <ele>1277</ele>
        <time>2022-01-13T21:24:13Z</time>
      </trkpt>
      <trkpt lat="45.0482" lon="5.50085">
        <ele>1275</ele>
        <time>2022-01-13T21:24:33Z</time>
      </trkpt>
      <trkpt lat="45.04868" lon="5.50092">
        <ele>1272</ele>
        <time>2022-01-13T21:25:12Z</time>
      </trkpt>
      <trkpt lat="45.04896" lon="5.50073">
        <ele>1270</ele>
        <time>2022-01-13T21:25:37Z</time>
      </trkpt>
      <trkpt lat="45.0492" lon="5.50074">
        <ele>1268</ele>
        <time>2022-01-13T21:25:56Z</time>
      </trkpt>
      <trkpt lat="45.04964" lon="5.50106">
        <ele>1264</ele>
        <time>2022-01-13T21:26:35Z</time>
      </trkpt>
      <trkpt lat="45.04963" lon="5.50099">
        <ele>1264</ele>
        <time>2022-01-13T21:26:40Z</time>
      </trkpt>
      <trkpt lat="45.04964" lon="5.5009">
        <ele>1263</ele>
        <time>2022-01-13T21:26:45Z</time>
      </trkpt>
      <trkpt lat="45.04968" lon="5.50077">
        <ele>1262</ele>
        <time>2022-01-13T21:26:53Z</time>
      </trkpt>
      <trkpt lat="45.04974" lon="5.50067">
        <ele>1262</ele>
        <time>2022-01-13T21:27:00Z</time>
      </trkpt>
      <trkpt lat="45.04994" lon="5.50048">
        <ele>1261</ele>
        <time>2022-01-13T21:27:19Z</time>
      </trkpt>
      <trkpt lat="45.05003" lon="5.50037">
        <ele>1261</ele>
        <time>2022-01-13T21:27:29Z</time>
      </trkpt>
      <trkpt lat="45.05011" lon="5.50024">
        <ele>1262</ele>
        <time>2022-01-13T21:27:39Z</time>
      </trkpt>
      <trkpt lat="45.05025" lon="5.49994">
        <ele>1264</ele>
        <time>2022-01-13T21:27:59Z</time>
      </trkpt>
      <trkpt lat="45.05033" lon="5.49984">
        <ele>1264</ele>
        <time>2022-01-13T21:28:08Z</time>
      </trkpt>
      <trkpt lat="45.05041" lon="5.49978">
        <ele>1265</ele>
        <time>2022-01-13T21:28:15Z</time>
      </trkpt>
      <trkpt lat="45.05047" lon="5.49976">
        <ele>1265</ele>
        <time>2022-01-13T21:28:20Z</time>
      </trkpt>
      <trkpt lat="45.05061" lon="5.49976">
        <ele>1265</ele>
        <time>2022-01-13T21:28:31Z</time>
      </trkpt>
      <trkpt lat="45.05089" lon="5.49988">
        <ele>1262</ele>
        <time>2022-01-13T21:28:54Z</time>
      </trkpt>
      <trkpt lat="45.051" lon="5.49997">
        <ele>1261</ele>
        <time>2022-01-13T21:29:05Z</time>
      </trkpt>
      <trkpt lat="45.05122" lon="5.50029">
        <ele>1260</ele>
        <time>2022-01-13T21:29:30Z</time>
      </trkpt>
      <trkpt lat="45.05136" lon="5.50035">
        <ele>1260</ele>
        <time>2022-01-13T21:29:42Z</time>
      </trkpt>
      <trkpt lat="45.05155" lon="5.50034">
        <ele>1260</ele>
        <time>2022-01-13T21:29:57Z</time>
      </trkpt>
      <trkpt lat="45.05168" lon="5.50029">
        <ele>1261</ele>
        <time>2022-01-13T21:30:08Z</time>
      </trkpt>
      <trkpt lat="45.05189" lon="5.50017">
        <ele>1261</ele>
        <time>2022-01-13T21:30:26Z</time>
      </trkpt>
      <trkpt lat="45.05224" lon="5.49987">
        <ele>1262</ele>
        <time>2022-01-13T21:30:58Z</time>
      </trkpt>
      <trkpt lat="45.05264" lon="5.4996">
        <ele>1264</ele>
        <time>2022-01-13T21:31:34Z</time>
      </trkpt>
      <trkpt lat="45.05288" lon="5.49946">
        <ele>1266</ele>
        <time>2022-01-13T21:31:55Z</time>
      </trkpt>
      <trkpt lat="45.05312" lon="5.49943">
        <ele>1266</ele>
        <time>2022-01-13T21:32:14Z</time>
      </trkpt>
      <trkpt lat="45.05334" lon="5.49933">
        <ele>1267</ele>
        <time>2022-01-13T21:32:32Z</time>
      </trkpt>
      <trkpt lat="45.05343" lon="5.49932">
        <ele>1268</ele>
        <time>2022-01-13T21:32:40Z</time>
      </trkpt>
      <trkpt lat="45.05349" lon="5.49935">
        <ele>1268</ele>
        <time>2022-01-13T21:32:45Z</time>
      </trkpt>
      <trkpt lat="45.05372" lon="5.49955">
        <ele>1266</ele>
        <time>2022-01-13T21:33:06Z</time>
      </trkpt>
      <trkpt lat="45.05387" lon="5.49966">
        <ele>1266</ele>
        <time>2022-01-13T21:33:20Z</time>
      </trkpt>
      <trkpt lat="45.05428" lon="5.49984">
        <ele>1265</ele>
        <time>2022-01-13T21:33:54Z</time>
      </trkpt>
      <trkpt lat="45.05443" lon="5.49985">
        <ele>1265</ele>
        <time>2022-01-13T21:34:06Z</time>
      </trkpt>
      <trkpt lat="45.05459" lon="5.49977">
        <ele>1267</ele>
        <time>2022-01-13T21:34:20Z</time>
      </trkpt>
      <trkpt lat="45.05496" lon="5.49945">
        <ele>1274</ele>
        <time>2022-01-13T21:34:55Z</time>
      </trkpt>
      <trkpt lat="45.05509" lon="5.49936">
        <ele>1276</ele>
        <time>2022-01-13T21:35:06Z</time>
      </trkpt>
      <trkpt lat="45.05557" lon="5.49923">
        <ele>1277</ele>
        <time>2022-01-13T21:35:45Z</time>
      </trkpt>
      <trkpt lat="45.05569" lon="5.49923">
        <ele>1276</ele>
        <time>2022-01-13T21:35:55Z</time>
      </trkpt>
      <trkpt lat="45.05601" lon="5.49927">
        <ele>1277</ele>
        <time>2022-01-13T21:36:21Z</time>
      </trkpt>
      <trkpt lat="45.05618" lon="5.49933">
        <ele>1277</ele>
        <time>2022-01-13T21:36:35Z</time>
      </trkpt>
      <trkpt lat="45.05662" lon="5.49939">
        <ele>1280</ele>
        <time>2022-01-13T21:37:10Z</time>
      </trkpt>
      <trkpt lat="45.05695" lon="5.49955">
        <ele>1279</ele>
        <time>2022-01-13T21:37:38Z</time>
      </trkpt>
      <trkpt lat="45.05711" lon="5.49959">
        <ele>1280</ele>
        <time>2022-01-13T21:37:51Z</time>
      </trkpt>
      <trkpt lat="45.0575" lon="5.49963">
        <ele>1283</ele>
        <time>2022-01-13T21:38:22Z</time>
      </trkpt>
      <trkpt lat="45.0576" lon="5.49966">
        <ele>1282</ele>
        <time>2022-01-13T21:38:31Z</time>
      </trkpt>
      <trkpt lat="45.05772" lon="5.49976">
        <ele>1280</ele>
        <time>2022-01-13T21:38:42Z</time>
      </trkpt>
      <trkpt lat="45.05777" lon="5.49986">
        <ele>1278</ele>
        <time>2022-01-13T21:38:49Z</time>
      </trkpt>
      <trkpt lat="45.05779" lon="5.49997">
        <ele>1276</ele>
        <time>2022-01-13T21:38:55Z</time>
      </trkpt>
      <trkpt lat="45.05784" lon="5.50004">
        <ele>1275</ele>
        <time>2022-01-13T21:39:01Z</time>
      </trkpt>
      <trkpt lat="45.05791" lon="5.50009">
        <ele>1274</ele>
        <time>2022-01-13T21:39:07Z</time>
      </trkpt>
      <trkpt lat="45.05803" lon="5.50005">
        <ele>1274</ele>
        <time>2022-01-13T21:39:17Z</time>
      </trkpt>
      <trkpt lat="45.05815" lon="5.49993">
        <ele>1276</ele>
        <time>2022-01-13T21:39:29Z</time>
      </trkpt>
      <trkpt lat="45.05827" lon="5.49991">
        <ele>1277</ele>
        <time>2022-01-13T21:39:38Z</time>
      </trkpt>
      <trkpt lat="45.05834" lon="5.49996">
        <ele>1276</ele>
        <time>2022-01-13T21:39:45Z</time>
      </trkpt>
      <trkpt lat="45.05839" lon="5.50004">
        <ele>1274</ele>
        <time>2022-01-13T21:39:51Z</time>
      </trkpt>
      <trkpt lat="45.05843" lon="5.50016">
        <ele>1273</ele>
        <time>2022-01-13T21:39:58Z</time>
      </trkpt>
      <trkpt lat="45.05845" lon="5.5003">
        <ele>1271</ele>
        <time>2022-01-13T21:40:06Z</time>
      </trkpt>
      <trkpt lat="45.05856" lon="5.50008">
        <ele>1274</ele>
        <time>2022-01-13T21:40:21Z</time>
      </trkpt>
      <trkpt lat="45.05864" lon="5.4998">
        <ele>1279</ele>
        <time>2022-01-13T21:40:38Z</time>
      </trkpt>
      <trkpt lat="45.05875" lon="5.49968">
        <ele>1281</ele>
        <time>2022-01-13T21:40:50Z</time>
      </trkpt>
      <trkpt lat="45.05919" lon="5.49967">
        <ele>1281</ele>
        <time>2022-01-13T21:41:25Z</time>
      </trkpt>
      <trkpt lat="45.05959" lon="5.49971">
        <ele>1281</ele>
        <time>2022-01-13T21:41:57Z</time>
      </trkpt>
      <trkpt lat="45.06" lon="5.49966">
        <ele>1283</ele>
        <time>2022-01-13T21:42:30Z</time>
      </trkpt>
      <trkpt lat="45.0607" lon="5.4996">
        <ele>1287</ele>
        <time>2022-01-13T21:43:26Z</time>
      </trkpt>
      <trkpt lat="45.06139" lon="5.49944">
        <ele>1290</ele>
        <time>2022-01-13T21:44:22Z</time>
      </trkpt>
      <trkpt lat="45.06191" lon="5.49945">
        <ele>1288</ele>
        <time>2022-01-13T21:45:04Z</time>
      </trkpt>
      <trkpt lat="45.06228" lon="5.49938">
        <ele>1290</ele>
        <time>2022-01-13T21:45:34Z</time>
      </trkpt>
      <trkpt lat="45.06289" lon="5.49909">
        <ele>1294</ele>
        <time>2022-01-13T21:46:25Z</time>
      </trkpt>
      <trkpt lat="45.06321" lon="5.49899">
        <ele>1293</ele>
        <time>2022-01-13T21:46:51Z</time>
      </trkpt>
      <trkpt lat="45.06348" lon="5.49885">
        <ele>1291</ele>
        <time>2022-01-13T21:47:14Z</time>
      </trkpt>
      <trkpt lat="45.06369" lon="5.49868">
        <ele>1289</ele>
        <time>2022-01-13T21:47:34Z</time>
      </trkpt>
      <trkpt lat="45.06377" lon="5.49853">
        <ele>1289</ele>
        <time>2022-01-13T21:47:44Z</time>
      </trkpt>
      <trkpt lat="45.06338" lon="5.49816">
        <ele>1302</ele>
        <time>2022-01-13T21:48:22Z</time>
      </trkpt>
      <trkpt lat="45.06297" lon="5.49766">
        <ele>1310</ele>
        <time>2022-01-13T21:49:05Z</time>
      </trkpt>
      <trkpt lat="45.06281" lon="5.49748">
        <ele>1312</ele>
        <time>2022-01-13T21:49:22Z</time>
      </trkpt>
      <trkpt lat="45.06231" lon="5.49731">
        <ele>1320</ele>
        <time>2022-01-13T21:50:03Z</time>
      </trkpt>
      <trkpt lat="45.06207" lon="5.49716">
        <ele>1325</ele>
        <time>2022-01-13T21:50:24Z</time>
      </trkpt>
      <trkpt lat="45.06188" lon="5.497">
        <ele>1329</ele>
        <time>2022-01-13T21:50:42Z</time>
      </trkpt>
      <trkpt lat="45.06163" lon="5.4967">
        <ele>1337</ele>
        <time>2022-01-13T21:51:08Z</time>
      </trkpt>
      <trkpt lat="45.06135" lon="5.49663">
        <ele>1341</ele>
        <time>2022-01-13T21:51:31Z</time>
      </trkpt>
      <trkpt lat="45.06103" lon="5.49662">
        <ele>1344</ele>
        <time>2022-01-13T21:51:56Z</time>
      </trkpt>
      <trkpt lat="45.06081" lon="5.49671">
        <ele>1344</ele>
        <time>2022-01-13T21:52:14Z</time>
      </trkpt>
      <trkpt lat="45.06046" lon="5.49666">
        <ele>1348</ele>
        <time>2022-01-13T21:52:43Z</time>
      </trkpt>
      <trkpt lat="45.06006" lon="5.49655">
        <ele>1354</ele>
        <time>2022-01-13T21:53:15Z</time>
      </trkpt>
      <trkpt lat="45.05957" lon="5.49647">
        <ele>1358</ele>
        <time>2022-01-13T21:53:55Z</time>
      </trkpt>
      <trkpt lat="45.05925" lon="5.49637">
        <ele>1360</ele>
        <time>2022-01-13T21:54:21Z</time>
      </trkpt>
      <trkpt lat="45.05902" lon="5.4961">
        <ele>1365</ele>
        <time>2022-01-13T21:54:45Z</time>
      </trkpt>
      <trkpt lat="45.05895" lon="5.49559">
        <ele>1372</ele>
        <time>2022-01-13T21:55:14Z</time>
      </trkpt>
      <trkpt lat="45.05886" lon="5.4953">
        <ele>1377</ele>
        <time>2022-01-13T21:55:32Z</time>
      </trkpt>
      <trkpt lat="45.05866" lon="5.49489">
        <ele>1379</ele>
        <time>2022-01-13T21:56:00Z</time>
      </trkpt>
      <trkpt lat="45.05839" lon="5.49447">
        <ele>1374</ele>
        <time>2022-01-13T21:56:33Z</time>
      </trkpt>
      <trkpt lat="45.05819" lon="5.49434">
        <ele>1375</ele>
        <time>2022-01-13T21:56:50Z</time>
      </trkpt>
      <trkpt lat="45.05801" lon="5.49429">
        <ele>1377</ele>
        <time>2022-01-13T21:57:05Z</time>
      </trkpt>
      <trkpt lat="45.05772" lon="5.49427">
        <ele>1381</ele>
        <time>2022-01-13T21:57:28Z</time>
      </trkpt>
      <trkpt lat="45.05742" lon="5.49421">
        <ele>1385</ele>
        <time>2022-01-13T21:57:52Z</time>
      </trkpt>
      <trkpt lat="45.05717" lon="5.49403">
        <ele>1390</ele>
        <time>2022-01-13T21:58:15Z</time>
      </trkpt>
      <trkpt lat="45.05697" lon="5.49382">
        <ele>1393</ele>
        <time>2022-01-13T21:58:35Z</time>
      </trkpt>
      <trkpt lat="45.05677" lon="5.49358">
        <ele>1395</ele>
        <time>2022-01-13T21:58:56Z</time>
      </trkpt>
      <trkpt lat="45.05735" lon="5.49258">
        <ele>1393</ele>
        <time>2022-01-13T22:00:09Z</time>
      </trkpt>
      <trkpt lat="45.05755" lon="5.49186">
        <ele>1397</ele>
        <time>2022-01-13T22:00:53Z</time>
      </trkpt>
      <trkpt lat="45.05793" lon="5.49093">
        <ele>1396</ele>
        <time>2022-01-13T22:01:53Z</time>
      </trkpt>
      <trkpt lat="45.05793" lon="5.49093">
        <ele>1396</ele>
        <time>2022-01-13T22:01:53Z</time>
      </trkpt>
      <trkpt lat="45.05917" lon="5.49183">
        <ele>1364</ele>
        <time>2022-01-13T22:03:45Z</time>
      </trkpt>
      <trkpt lat="45.06" lon="5.49211">
        <ele>1329</ele>
        <time>2022-01-13T22:04:53Z</time>
      </trkpt>
      <trkpt lat="45.06" lon="5.49211">
        <ele>1329</ele>
        <time>2022-01-13T22:04:53Z</time>
      </trkpt>
      <trkpt lat="45.06053" lon="5.49203">
        <ele>1313</ele>
        <time>2022-01-13T22:05:36Z</time>
      </trkpt>
      <trkpt lat="45.06132" lon="5.49269">
        <ele>1279</ele>
        <time>2022-01-13T22:06:49Z</time>
      </trkpt>
      <trkpt lat="45.062" lon="5.49344">
        <ele>1249</ele>
        <time>2022-01-13T22:07:58Z</time>
      </trkpt>
      <trkpt lat="45.06279" lon="5.49417">
        <ele>1221</ele>
        <time>2022-01-13T22:09:14Z</time>
      </trkpt>
      <trkpt lat="45.06279" lon="5.49417">
        <ele>1221</ele>
        <time>2022-01-13T22:09:14Z</time>
      </trkpt>
      <trkpt lat="45.06329" lon="5.49452">
        <ele>1211</ele>
        <time>2022-01-13T22:09:59Z</time>
      </trkpt>
      <trkpt lat="45.06384" lon="5.49462">
        <ele>1190</ele>
        <time>2022-01-13T22:10:43Z</time>
      </trkpt>
      <trkpt lat="45.06443" lon="5.49512">
        <ele>1180</ele>
        <time>2022-01-13T22:11:38Z</time>
      </trkpt>
      <trkpt lat="45.06458" lon="5.49548">
        <ele>1191</ele>
        <time>2022-01-13T22:12:02Z</time>
      </trkpt>
      <trkpt lat="45.06475" lon="5.49579">
        <ele>1197</ele>
        <time>2022-01-13T22:12:24Z</time>
      </trkpt>
      <trkpt lat="45.06501" lon="5.49617">
        <ele>1198</ele>
        <time>2022-01-13T22:12:54Z</time>
      </trkpt>
      <trkpt lat="45.06535" lon="5.49647">
        <ele>1199</ele>
        <time>2022-01-13T22:13:26Z</time>
      </trkpt>
      <trkpt lat="45.06562" lon="5.49661">
        <ele>1195</ele>
        <time>2022-01-13T22:13:49Z</time>
      </trkpt>
      <trkpt lat="45.06573" lon="5.49677">
        <ele>1195</ele>
        <time>2022-01-13T22:14:02Z</time>
      </trkpt>
      <trkpt lat="45.06612" lon="5.4978">
        <ele>1199</ele>
        <time>2022-01-13T22:15:08Z</time>
      </trkpt>
      <trkpt lat="45.06625" lon="5.49824">
        <ele>1196</ele>
        <time>2022-01-13T22:15:35Z</time>
      </trkpt>
      <trkpt lat="45.06627" lon="5.49836">
        <ele>1196</ele>
        <time>2022-01-13T22:15:42Z</time>
      </trkpt>
      <trkpt lat="45.06624" lon="5.4985">
        <ele>1197</ele>
        <time>2022-01-13T22:15:50Z</time>
      </trkpt>
      <trkpt lat="45.06601" lon="5.49887">
        <ele>1204</ele>
        <time>2022-01-13T22:16:18Z</time>
      </trkpt>
      <trkpt lat="45.06598" lon="5.49898">
        <ele>1205</ele>
        <time>2022-01-13T22:16:24Z</time>
      </trkpt>
      <trkpt lat="45.06599" lon="5.49909">
        <ele>1205</ele>
        <time>2022-01-13T22:16:31Z</time>
      </trkpt>
      <trkpt lat="45.06605" lon="5.4993">
        <ele>1202</ele>
        <time>2022-01-13T22:16:44Z</time>
      </trkpt>
      <trkpt lat="45.06629" lon="5.49971">
        <ele>1191</ele>
        <time>2022-01-13T22:17:14Z</time>
      </trkpt>
      <trkpt lat="45.0663" lon="5.49977">
        <ele>1190</ele>
        <time>2022-01-13T22:17:17Z</time>
      </trkpt>
      <trkpt lat="45.06626" lon="5.49991">
        <ele>1190</ele>
        <time>2022-01-13T22:17:26Z</time>
      </trkpt>
      <trkpt lat="45.06622" lon="5.49997">
        <ele>1190</ele>
        <time>2022-01-13T22:17:30Z</time>
      </trkpt>
      <trkpt lat="45.06612" lon="5.50007">
        <ele>1191</ele>
        <time>2022-01-13T22:17:40Z</time>
      </trkpt>
      <trkpt lat="45.06561" lon="5.50074">
        <ele>1187</ele>
        <time>2022-01-13T22:18:36Z</time>
      </trkpt>
      <trkpt lat="45.06535" lon="5.50091">
        <ele>1187</ele>
        <time>2022-01-13T22:18:59Z</time>
      </trkpt>
      <trkpt lat="45.06504" lon="5.50119">
        <ele>1185</ele>
        <time>2022-01-13T22:19:28Z</time>
      </trkpt>
      <trkpt lat="45.06477" lon="5.50154">
        <ele>1184</ele>
        <time>2022-01-13T22:19:58Z</time>
      </trkpt>
      <trkpt lat="45.06463" lon="5.5018">
        <ele>1182</ele>
        <time>2022-01-13T22:20:16Z</time>
      </trkpt>
      <trkpt lat="45.06461" lon="5.50219">
        <ele>1176</ele>
        <time>2022-01-13T22:20:38Z</time>
      </trkpt>
      <trkpt lat="45.06452" lon="5.50254">
        <ele>1173</ele>
        <time>2022-01-13T22:20:59Z</time>
      </trkpt>
      <trkpt lat="45.06423" lon="5.5031">
        <ele>1173</ele>
        <time>2022-01-13T22:21:38Z</time>
      </trkpt>
      <trkpt lat="45.06405" lon="5.5034">
        <ele>1173</ele>
        <time>2022-01-13T22:22:01Z</time>
      </trkpt>
      <trkpt lat="45.06392" lon="5.50355">
        <ele>1176</ele>
        <time>2022-01-13T22:22:14Z</time>
      </trkpt>
      <trkpt lat="45.06378" lon="5.50378">
        <ele>1178</ele>
        <time>2022-01-13T22:22:31Z</time>
      </trkpt>
      <trkpt lat="45.06346" lon="5.5047">
        <ele>1179</ele>
        <time>2022-01-13T22:23:29Z</time>
      </trkpt>
      <trkpt lat="45.06327" lon="5.50498">
        <ele>1180</ele>
        <time>2022-01-13T22:23:51Z</time>
      </trkpt>
      <trkpt lat="45.06313" lon="5.5051">
        <ele>1183</ele>
        <time>2022-01-13T22:24:04Z</time>
      </trkpt>
      <trkpt lat="45.06242" lon="5.50553">
        <ele>1191</ele>
        <time>2022-01-13T22:25:06Z</time>
      </trkpt>
      <trkpt lat="45.06198" lon="5.50587">
        <ele>1192</ele>
        <time>2022-01-13T22:25:46Z</time>
      </trkpt>
      <trkpt lat="45.06268" lon="5.5056">
        <ele>1188</ele>
        <time>2022-01-13T22:26:44Z</time>
      </trkpt>
      <trkpt lat="45.06325" lon="5.50517">
        <ele>1181</ele>
        <time>2022-01-13T22:27:36Z</time>
      </trkpt>
      <trkpt lat="45.06268" lon="5.5056">
        <ele>1188</ele>
        <time>2022-01-13T22:28:28Z</time>
      </trkpt>
      <trkpt lat="45.06198" lon="5.50587">
        <ele>1192</ele>
        <time>2022-01-13T22:29:26Z</time>
      </trkpt>
      <trkpt lat="45.06169" lon="5.5061">
        <ele>1192</ele>
        <time>2022-01-13T22:29:53Z</time>
      </trkpt>
      <trkpt lat="45.06154" lon="5.5065">
        <ele>1191</ele>
        <time>2022-01-13T22:30:18Z</time>
      </trkpt>
      <trkpt lat="45.06131" lon="5.5067">
        <ele>1194</ele>
        <time>2022-01-13T22:30:40Z</time>
      </trkpt>
      <trkpt lat="45.06124" lon="5.5069">
        <ele>1190</ele>
        <time>2022-01-13T22:30:52Z</time>
      </trkpt>
      <trkpt lat="45.06121" lon="5.5071">
        <ele>1186</ele>
        <time>2022-01-13T22:31:04Z</time>
      </trkpt>
      <trkpt lat="45.06122" lon="5.50718">
        <ele>1184</ele>
        <time>2022-01-13T22:31:09Z</time>
      </trkpt>
      <trkpt lat="45.06126" lon="5.50724">
        <ele>1181</ele>
        <time>2022-01-13T22:31:13Z</time>
      </trkpt>
      <trkpt lat="45.06136" lon="5.50728">
        <ele>1179</ele>
        <time>2022-01-13T22:31:22Z</time>
      </trkpt>
      <trkpt lat="45.06166" lon="5.50734">
        <ele>1173</ele>
        <time>2022-01-13T22:31:46Z</time>
      </trkpt>
      <trkpt lat="45.06198" lon="5.50748">
        <ele>1171</ele>
        <time>2022-01-13T22:32:13Z</time>
      </trkpt>
      <trkpt lat="45.06205" lon="5.50757">
        <ele>1169</ele>
        <time>2022-01-13T22:32:20Z</time>
      </trkpt>
      <trkpt lat="45.06204" lon="5.50766">
        <ele>1167</ele>
        <time>2022-01-13T22:32:25Z</time>
      </trkpt>
      <trkpt lat="45.06168" lon="5.50779">
        <ele>1164</ele>
        <time>2022-01-13T22:32:55Z</time>
      </trkpt>
      <trkpt lat="45.06143" lon="5.50792">
        <ele>1163</ele>
        <time>2022-01-13T22:33:16Z</time>
      </trkpt>
      <trkpt lat="45.06129" lon="5.50802">
        <ele>1162</ele>
        <time>2022-01-13T22:33:29Z</time>
      </trkpt>
      <trkpt lat="45.06119" lon="5.50812">
        <ele>1161</ele>
        <time>2022-01-13T22:33:39Z</time>
      </trkpt>
      <trkpt lat="45.06114" lon="5.50827">
        <ele>1157</ele>
        <time>2022-01-13T22:33:48Z</time>
      </trkpt>
      <trkpt lat="45.06112" lon="5.50844">
        <ele>1154</ele>
        <time>2022-01-13T22:33:58Z</time>
      </trkpt>
      <trkpt lat="45.06125" lon="5.50866">
        <ele>1150</ele>
        <time>2022-01-13T22:34:14Z</time>
      </trkpt>
      <trkpt lat="45.0613" lon="5.50879">
        <ele>1148</ele>
        <time>2022-01-13T22:34:23Z</time>
      </trkpt>
      <trkpt lat="45.06134" lon="5.50904">
        <ele>1145</ele>
        <time>2022-01-13T22:34:37Z</time>
      </trkpt>
      <trkpt lat="45.06134" lon="5.50934">
        <ele>1141</ele>
        <time>2022-01-13T22:34:54Z</time>
      </trkpt>
      <trkpt lat="45.0613" lon="5.50947">
        <ele>1140</ele>
        <time>2022-01-13T22:35:02Z</time>
      </trkpt>
      <trkpt lat="45.0608" lon="5.50986">
        <ele>1133</ele>
        <time>2022-01-13T22:35:48Z</time>
      </trkpt>
      <trkpt lat="45.06066" lon="5.51003">
        <ele>1133</ele>
        <time>2022-01-13T22:36:02Z</time>
      </trkpt>
      <trkpt lat="45.06058" lon="5.51018">
        <ele>1133</ele>
        <time>2022-01-13T22:36:13Z</time>
      </trkpt>
      <trkpt lat="45.06049" lon="5.51042">
        <ele>1133</ele>
        <time>2022-01-13T22:36:28Z</time>
      </trkpt>
      <trkpt lat="45.06039" lon="5.51073">
        <ele>1132</ele>
        <time>2022-01-13T22:36:48Z</time>
      </trkpt>
      <trkpt lat="45.06011" lon="5.5112">
        <ele>1129</ele>
        <time>2022-01-13T22:37:23Z</time>
      </trkpt>
      <trkpt lat="45.05985" lon="5.51166">
        <ele>1126</ele>
        <time>2022-01-13T22:37:56Z</time>
      </trkpt>
      <trkpt lat="45.05975" lon="5.51192">
        <ele>1124</ele>
        <time>2022-01-13T22:38:13Z</time>
      </trkpt>
      <trkpt lat="45.05963" lon="5.51232">
        <ele>1120</ele>
        <time>2022-01-13T22:38:37Z</time>
      </trkpt>
      <trkpt lat="45.05954" lon="5.51248">
        <ele>1118</ele>
        <time>2022-01-13T22:38:49Z</time>
      </trkpt>
      <trkpt lat="45.05926" lon="5.51274">
        <ele>1116</ele>
        <time>2022-01-13T22:39:16Z</time>
      </trkpt>
      <trkpt lat="45.05903" lon="5.51304">
        <ele>1115</ele>
        <time>2022-01-13T22:39:41Z</time>
      </trkpt>
      <trkpt lat="45.05895" lon="5.51323">
        <ele>1115</ele>
        <time>2022-01-13T22:39:53Z</time>
      </trkpt>
      <trkpt lat="45.05889" lon="5.51346">
        <ele>1114</ele>
        <time>2022-01-13T22:40:07Z</time>
      </trkpt>
      <trkpt lat="45.05888" lon="5.51371">
        <ele>1113</ele>
        <time>2022-01-13T22:40:21Z</time>
      </trkpt>
      <trkpt lat="45.05891" lon="5.51393">
        <ele>1112</ele>
        <time>2022-01-13T22:40:34Z</time>
      </trkpt>
      <trkpt lat="45.059" lon="5.51415">
        <ele>1111</ele>
        <time>2022-01-13T22:40:48Z</time>
      </trkpt>
      <trkpt lat="45.05909" lon="5.51453">
        <ele>1109</ele>
        <time>2022-01-13T22:41:11Z</time>
      </trkpt>
      <trkpt lat="45.0591" lon="5.51479">
        <ele>1107</ele>
        <time>2022-01-13T22:41:26Z</time>
      </trkpt>
      <trkpt lat="45.05912" lon="5.51498">
        <ele>1106</ele>
        <time>2022-01-13T22:41:36Z</time>
      </trkpt>
      <trkpt lat="45.05922" lon="5.51544">
        <ele>1105</ele>
        <time>2022-01-13T22:42:04Z</time>
      </trkpt>
      <trkpt lat="45.05924" lon="5.51618">
        <ele>1104</ele>
        <time>2022-01-13T22:42:46Z</time>
      </trkpt>
      <trkpt lat="45.05938" lon="5.5168">
        <ele>1105</ele>
        <time>2022-01-13T22:43:22Z</time>
      </trkpt>
      <trkpt lat="45.05952" lon="5.51724">
        <ele>1106</ele>
        <time>2022-01-13T22:43:50Z</time>
      </trkpt>
      <trkpt lat="45.05953" lon="5.51708">
        <ele>1105</ele>
        <time>2022-01-13T22:43:59Z</time>
      </trkpt>
      <trkpt lat="45.05952" lon="5.51724">
        <ele>1106</ele>
        <time>2022-01-13T22:44:08Z</time>
      </trkpt>
      <trkpt lat="45.05949" lon="5.51739">
        <ele>1107</ele>
        <time>2022-01-13T22:44:17Z</time>
      </trkpt>
      <trkpt lat="45.0594" lon="5.5176">
        <ele>1108</ele>
        <time>2022-01-13T22:44:31Z</time>
      </trkpt>
      <trkpt lat="45.05935" lon="5.51826">
        <ele>1112</ele>
        <time>2022-01-13T22:45:08Z</time>
      </trkpt>
      <trkpt lat="45.05926" lon="5.51857">
        <ele>1115</ele>
        <time>2022-01-13T22:45:27Z</time>
      </trkpt>
      <trkpt lat="45.05914" lon="5.51915">
        <ele>1121</ele>
        <time>2022-01-13T22:46:01Z</time>
      </trkpt>
      <trkpt lat="45.05902" lon="5.51957">
        <ele>1124</ele>
        <time>2022-01-13T22:46:27Z</time>
      </trkpt>
      <trkpt lat="45.05903" lon="5.51991">
        <ele>1125</ele>
        <time>2022-01-13T22:46:46Z</time>
      </trkpt>
      <trkpt lat="45.05899" lon="5.52009">
        <ele>1126</ele>
        <time>2022-01-13T22:46:57Z</time>
      </trkpt>
      <trkpt lat="45.05884" lon="5.52044">
        <ele>1127</ele>
        <time>2022-01-13T22:47:20Z</time>
      </trkpt>
      <trkpt lat="45.05877" lon="5.52067">
        <ele>1127</ele>
        <time>2022-01-13T22:47:34Z</time>
      </trkpt>
      <trkpt lat="45.05872" lon="5.52074">
        <ele>1127</ele>
        <time>2022-01-13T22:47:40Z</time>
      </trkpt>
      <trkpt lat="45.05856" lon="5.52083">
        <ele>1127</ele>
        <time>2022-01-13T22:47:53Z</time>
      </trkpt>
      <trkpt lat="45.05843" lon="5.52093">
        <ele>1127</ele>
        <time>2022-01-13T22:48:05Z</time>
      </trkpt>
      <trkpt lat="45.05833" lon="5.52108">
        <ele>1127</ele>
        <time>2022-01-13T22:48:17Z</time>
      </trkpt>
      <trkpt lat="45.05832" lon="5.52119">
        <ele>1127</ele>
        <time>2022-01-13T22:48:23Z</time>
      </trkpt>
      <trkpt lat="45.05839" lon="5.52135">
        <ele>1127</ele>
        <time>2022-01-13T22:48:34Z</time>
      </trkpt>
      <trkpt lat="45.05846" lon="5.52146">
        <ele>1127</ele>
        <time>2022-01-13T22:48:42Z</time>
      </trkpt>
      <trkpt lat="45.05859" lon="5.52154">
        <ele>1128</ele>
        <time>2022-01-13T22:48:54Z</time>
      </trkpt>
      <trkpt lat="45.05916" lon="5.52182">
        <ele>1131</ele>
        <time>2022-01-13T22:49:42Z</time>
      </trkpt>
      <trkpt lat="45.05951" lon="5.52206">
        <ele>1133</ele>
        <time>2022-01-13T22:50:13Z</time>
      </trkpt>
      <trkpt lat="45.05963" lon="5.52225">
        <ele>1134</ele>
        <time>2022-01-13T22:50:27Z</time>
      </trkpt>
      <trkpt lat="45.05976" lon="5.52238">
        <ele>1135</ele>
        <time>2022-01-13T22:50:40Z</time>
      </trkpt>
      <trkpt lat="45.05995" lon="5.5225">
        <ele>1136</ele>
        <time>2022-01-13T22:50:57Z</time>
      </trkpt>
      <trkpt lat="45.06011" lon="5.52266">
        <ele>1137</ele>
        <time>2022-01-13T22:51:13Z</time>
      </trkpt>
      <trkpt lat="45.06038" lon="5.52295">
        <ele>1137</ele>
        <time>2022-01-13T22:51:40Z</time>
      </trkpt>
      <trkpt lat="45.06047" lon="5.52307">
        <ele>1138</ele>
        <time>2022-01-13T22:51:50Z</time>
      </trkpt>
      <trkpt lat="45.0605" lon="5.52316">
        <ele>1138</ele>
        <time>2022-01-13T22:51:55Z</time>
      </trkpt>
      <trkpt lat="45.06058" lon="5.52317">
        <ele>1138</ele>
        <time>2022-01-13T22:52:02Z</time>
      </trkpt>
      <trkpt lat="45.06074" lon="5.52331">
        <ele>1137</ele>
        <time>2022-01-13T22:52:17Z</time>
      </trkpt>
      <trkpt lat="45.06089" lon="5.52348">
        <ele>1137</ele>
        <time>2022-01-13T22:52:32Z</time>
      </trkpt>
      <trkpt lat="45.06106" lon="5.52363">
        <ele>1137</ele>
        <time>2022-01-13T22:52:48Z</time>
      </trkpt>
      <trkpt lat="45.0612" lon="5.52369">
        <ele>1136</ele>
        <time>2022-01-13T22:53:00Z</time>
      </trkpt>
      <trkpt lat="45.06161" lon="5.52364">
        <ele>1131</ele>
        <time>2022-01-13T22:53:33Z</time>
      </trkpt>
      <trkpt lat="45.06202" lon="5.52373">
        <ele>1128</ele>
        <time>2022-01-13T22:54:06Z</time>
      </trkpt>
      <trkpt lat="45.06209" lon="5.5237">
        <ele>1127</ele>
        <time>2022-01-13T22:54:12Z</time>
      </trkpt>
      <trkpt lat="45.06215" lon="5.52361">
        <ele>1126</ele>
        <time>2022-01-13T22:54:19Z</time>
      </trkpt>
      <trkpt lat="45.06221" lon="5.52376">
        <ele>1127</ele>
        <time>2022-01-13T22:54:29Z</time>
      </trkpt>
    </trkseg>
  </trk>
</gpx>